sensor_id;sensor_type;location;lat;lon;timestamp;temperature;humidity
74224;SHT31;62585;49.706;18.216;2023-04-19T00:00:47;10.28;91.60
74224;SHT31;62585;49.706;18.216;2023-04-19T00:03:16;10.25;92.17
74224;SHT31;62585;49.706;18.216;2023-04-19T00:05:42;10.25;92.04
74224;SHT31;62585;49.706;18.216;2023-04-19T00:08:08;10.29;92.05
74224;SHT31;62585;49.706;18.216;2023-04-19T00:10:34;10.28;92.17
74224;SHT31;62585;49.706;18.216;2023-04-19T00:13:00;10.36;91.93
74224;SHT31;62585;49.706;18.216;2023-04-19T00:15:26;10.36;91.83
74224;SHT31;62585;49.706;18.216;2023-04-19T00:17:52;10.41;92.17
74224;SHT31;62585;49.706;18.216;2023-04-19T00:20:19;10.45;91.99
74224;SHT31;62585;49.706;18.216;2023-04-19T00:22:44;10.46;91.82
74224;SHT31;62585;49.706;18.216;2023-04-19T00:25:10;10.43;92.28
74224;SHT31;62585;49.706;18.216;2023-04-19T00:27:36;10.50;92.23
74224;SHT31;62585;49.706;18.216;2023-04-19T00:30:01;10.52;92.28
74224;SHT31;62585;49.706;18.216;2023-04-19T00:32:27;10.46;92.55
74224;SHT31;62585;49.706;18.216;2023-04-19T00:34:53;10.53;92.79
74224;SHT31;62585;49.706;18.216;2023-04-19T00:37:19;10.56;92.41
74224;SHT31;62585;49.706;18.216;2023-04-19T00:39:45;10.52;92.71
74224;SHT31;62585;49.706;18.216;2023-04-19T00:42:11;10.52;92.52
74224;SHT31;62585;49.706;18.216;2023-04-19T00:44:36;10.49;92.61
74224;SHT31;62585;49.706;18.216;2023-04-19T00:47:02;10.52;92.58
74224;SHT31;62585;49.706;18.216;2023-04-19T00:49:29;10.49;92.50
74224;SHT31;62585;49.706;18.216;2023-04-19T00:51:55;10.53;92.59
74224;SHT31;62585;49.706;18.216;2023-04-19T00:54:21;10.55;92.19
74224;SHT31;62585;49.706;18.216;2023-04-19T00:56:47;10.56;92.37
74224;SHT31;62585;49.706;18.216;2023-04-19T00:59:14;10.50;92.36
74224;SHT31;62585;49.706;18.216;2023-04-19T01:01:40;10.48;92.52
74224;SHT31;62585;49.706;18.216;2023-04-19T01:04:06;10.52;92.36
74224;SHT31;62585;49.706;18.216;2023-04-19T01:06:37;10.46;92.57
74224;SHT31;62585;49.706;18.216;2023-04-19T01:09:02;10.43;92.86
74224;SHT31;62585;49.706;18.216;2023-04-19T01:11:29;10.41;93.19
74224;SHT31;62585;49.706;18.216;2023-04-19T01:13:55;10.41;93.28
74224;SHT31;62585;49.706;18.216;2023-04-19T01:16:21;10.49;92.94
74224;SHT31;62585;49.706;18.216;2023-04-19T01:18:47;10.45;92.99
74224;SHT31;62585;49.706;18.216;2023-04-19T01:21:13;10.46;93.17
74224;SHT31;62585;49.706;18.216;2023-04-19T01:23:38;10.39;93.11
74224;SHT31;62585;49.706;18.216;2023-04-19T01:26:05;10.43;92.72
74224;SHT31;62585;49.706;18.216;2023-04-19T01:28:31;10.42;93.11
74224;SHT31;62585;49.706;18.216;2023-04-19T01:30:56;10.43;93.02
74224;SHT31;62585;49.706;18.216;2023-04-19T01:33:22;10.46;92.92
74224;SHT31;62585;49.706;18.216;2023-04-19T01:35:48;10.41;93.09
74224;SHT31;62585;49.706;18.216;2023-04-19T01:38:15;10.41;92.99
74224;SHT31;62585;49.706;18.216;2023-04-19T01:40:41;10.45;93.16
74224;SHT31;62585;49.706;18.216;2023-04-19T01:43:07;10.45;93.17
74224;SHT31;62585;49.706;18.216;2023-04-19T01:45:33;10.46;93.19
74224;SHT31;62585;49.706;18.216;2023-04-19T01:48:01;10.45;93.38
74224;SHT31;62585;49.706;18.216;2023-04-19T01:50:29;10.43;93.12
74224;SHT31;62585;49.706;18.216;2023-04-19T01:52:59;10.43;93.20
74224;SHT31;62585;49.706;18.216;2023-04-19T01:55:25;10.46;92.98
74224;SHT31;62585;49.706;18.216;2023-04-19T01:57:51;10.38;93.19
74224;SHT31;62585;49.706;18.216;2023-04-19T02:00:21;10.45;93.20
74224;SHT31;62585;49.706;18.216;2023-04-19T02:02:46;10.39;93.50
74224;SHT31;62585;49.706;18.216;2023-04-19T02:05:13;10.35;93.36
74224;SHT31;62585;49.706;18.216;2023-04-19T02:07:38;10.38;92.93
74224;SHT31;62585;49.706;18.216;2023-04-19T02:10:05;10.45;92.76
74224;SHT31;62585;49.706;18.216;2023-04-19T02:12:32;10.38;92.66
74224;SHT31;62585;49.706;18.216;2023-04-19T02:14:59;10.31;92.89
74224;SHT31;62585;49.706;18.216;2023-04-19T02:17:26;10.33;93.01
74224;SHT31;62585;49.706;18.216;2023-04-19T02:19:53;10.33;93.03
74224;SHT31;62585;49.706;18.216;2023-04-19T02:22:19;10.38;92.94
74224;SHT31;62585;49.706;18.216;2023-04-19T02:24:46;10.36;93.15
74224;SHT31;62585;49.706;18.216;2023-04-19T02:27:12;10.43;92.97
74224;SHT31;62585;49.706;18.216;2023-04-19T02:29:39;10.38;92.63
74224;SHT31;62585;49.706;18.216;2023-04-19T02:32:05;10.45;92.55
74224;SHT31;62585;49.706;18.216;2023-04-19T02:34:32;10.43;92.60
74224;SHT31;62585;49.706;18.216;2023-04-19T02:36:57;10.42;92.63
74224;SHT31;62585;49.706;18.216;2023-04-19T02:39:23;10.45;92.40
74224;SHT31;62585;49.706;18.216;2023-04-19T02:41:49;10.38;92.53
74224;SHT31;62585;49.706;18.216;2023-04-19T02:44:15;10.25;92.33
74224;SHT31;62585;49.706;18.216;2023-04-19T02:46:47;10.26;92.58
74224;SHT31;62585;49.706;18.216;2023-04-19T02:49:13;10.18;93.42
74224;SHT31;62585;49.706;18.216;2023-04-19T02:51:39;10.23;93.36
74224;SHT31;62585;49.706;18.216;2023-04-19T02:54:05;10.12;93.34
74224;SHT31;62585;49.706;18.216;2023-04-19T02:56:30;10.22;92.77
74224;SHT31;62585;49.706;18.216;2023-04-19T02:58:59;10.15;92.78
74224;SHT31;62585;49.706;18.216;2023-04-19T03:01:25;10.16;92.89
74224;SHT31;62585;49.706;18.216;2023-04-19T03:03:51;10.19;92.99
74224;SHT31;62585;49.706;18.216;2023-04-19T03:06:17;10.22;92.79
74224;SHT31;62585;49.706;18.216;2023-04-19T03:08:43;10.18;93.04
74224;SHT31;62585;49.706;18.216;2023-04-19T03:11:10;10.16;92.90
74224;SHT31;62585;49.706;18.216;2023-04-19T03:13:36;10.16;92.70
74224;SHT31;62585;49.706;18.216;2023-04-19T03:16:02;10.12;92.85
74224;SHT31;62585;49.706;18.216;2023-04-19T03:18:28;10.12;93.12
74224;SHT31;62585;49.706;18.216;2023-04-19T03:20:54;10.14;93.26
74224;SHT31;62585;49.706;18.216;2023-04-19T03:23:20;10.09;92.83
74224;SHT31;62585;49.706;18.216;2023-04-19T03:25:46;10.08;93.12
74224;SHT31;62585;49.706;18.216;2023-04-19T03:28:12;10.05;93.33
74224;SHT31;62585;49.706;18.216;2023-04-19T03:30:37;10.14;92.85
74224;SHT31;62585;49.706;18.216;2023-04-19T03:33:03;10.18;92.49
74224;SHT31;62585;49.706;18.216;2023-04-19T03:35:29;10.18;92.40
74224;SHT31;62585;49.706;18.216;2023-04-19T03:37:57;10.05;92.51
74224;SHT31;62585;49.706;18.216;2023-04-19T03:40:23;10.06;92.61
74224;SHT31;62585;49.706;18.216;2023-04-19T03:42:48;9.95;92.87
74224;SHT31;62585;49.706;18.216;2023-04-19T03:45:14;9.99;92.92
74224;SHT31;62585;49.706;18.216;2023-04-19T03:47:40;9.97;93.09
74224;SHT31;62585;49.706;18.216;2023-04-19T03:50:06;9.99;92.78
74224;SHT31;62585;49.706;18.216;2023-04-19T03:52:33;9.98;92.51
74224;SHT31;62585;49.706;18.216;2023-04-19T03:54:58;9.98;92.78
74224;SHT31;62585;49.706;18.216;2023-04-19T03:57:24;10.05;92.41
74224;SHT31;62585;49.706;18.216;2023-04-19T03:59:50;9.99;92.50
74224;SHT31;62585;49.706;18.216;2023-04-19T04:02:16;9.98;92.83
74224;SHT31;62585;49.706;18.216;2023-04-19T04:04:41;9.97;92.79
74224;SHT31;62585;49.706;18.216;2023-04-19T04:07:07;9.99;92.74
74224;SHT31;62585;49.706;18.216;2023-04-19T04:09:33;10.05;92.31
74224;SHT31;62585;49.706;18.216;2023-04-19T04:11:59;10.04;92.32
74224;SHT31;62585;49.706;18.216;2023-04-19T04:14:24;9.97;92.32
74224;SHT31;62585;49.706;18.216;2023-04-19T04:16:50;9.99;92.62
74224;SHT31;62585;49.706;18.216;2023-04-19T04:19:16;9.94;92.35
74224;SHT31;62585;49.706;18.216;2023-04-19T04:21:42;9.91;92.55
74224;SHT31;62585;49.706;18.216;2023-04-19T04:24:08;9.95;92.41
74224;SHT31;62585;49.706;18.216;2023-04-19T04:26:34;9.97;91.87
74224;SHT31;62585;49.706;18.216;2023-04-19T04:29:04;9.97;91.87
74224;SHT31;62585;49.706;18.216;2023-04-19T04:31:30;9.94;92.39
74224;SHT31;62585;49.706;18.216;2023-04-19T04:34:01;9.94;91.67
74224;SHT31;62585;49.706;18.216;2023-04-19T04:36:27;9.97;91.26
74224;SHT31;62585;49.706;18.216;2023-04-19T04:38:54;9.85;91.93
74224;SHT31;62585;49.706;18.216;2023-04-19T04:41:22;9.78;92.26
74224;SHT31;62585;49.706;18.216;2023-04-19T04:43:47;9.75;92.24
74224;SHT31;62585;49.706;18.216;2023-04-19T04:46:16;9.71;92.38
74224;SHT31;62585;49.706;18.216;2023-04-19T04:48:41;9.78;92.21
74224;SHT31;62585;49.706;18.216;2023-04-19T04:51:07;9.77;91.67
74224;SHT31;62585;49.706;18.216;2023-04-19T04:53:33;9.70;91.74
74224;SHT31;62585;49.706;18.216;2023-04-19T04:55:58;9.66;91.84
74224;SHT31;62585;49.706;18.216;2023-04-19T04:58:24;9.61;91.84
74224;SHT31;62585;49.706;18.216;2023-04-19T05:00:50;9.53;92.11
74224;SHT31;62585;49.706;18.216;2023-04-19T05:03:16;9.61;92.21
74224;SHT31;62585;49.706;18.216;2023-04-19T05:05:42;9.56;92.42
74224;SHT31;62585;49.706;18.216;2023-04-19T05:08:07;9.50;92.80
74224;SHT31;62585;49.706;18.216;2023-04-19T05:10:33;9.50;92.86
74224;SHT31;62585;49.706;18.216;2023-04-19T05:13:00;9.40;92.32
74224;SHT31;62585;49.706;18.216;2023-04-19T05:15:26;9.39;91.67
74224;SHT31;62585;49.706;18.216;2023-04-19T05:17:51;9.30;92.33
74224;SHT31;62585;49.706;18.216;2023-04-19T05:20:17;9.35;92.13
74224;SHT31;62585;49.706;18.216;2023-04-19T05:22:43;9.29;91.75
74224;SHT31;62585;49.706;18.216;2023-04-19T05:25:09;9.22;92.60
74224;SHT31;62585;49.706;18.216;2023-04-19T05:27:35;8.99;92.89
74224;SHT31;62585;49.706;18.216;2023-04-19T05:30:03;9.12;92.83
74224;SHT31;62585;49.706;18.216;2023-04-19T05:32:29;9.09;92.32
74224;SHT31;62585;49.706;18.216;2023-04-19T05:34:55;8.98;92.38
74224;SHT31;62585;49.706;18.216;2023-04-19T05:37:21;8.85;92.59
74224;SHT31;62585;49.706;18.216;2023-04-19T05:39:48;8.87;92.81
74224;SHT31;62585;49.706;18.216;2023-04-19T05:42:14;8.93;93.02
74224;SHT31;62585;49.706;18.216;2023-04-19T05:44:40;8.88;93.03
74224;SHT31;62585;49.706;18.216;2023-04-19T05:47:06;8.78;93.51
74224;SHT31;62585;49.706;18.216;2023-04-19T05:49:32;8.85;93.62
74224;SHT31;62585;49.706;18.216;2023-04-19T05:51:57;8.87;93.30
74224;SHT31;62585;49.706;18.216;2023-04-19T05:54:23;8.80;93.66
74224;SHT31;62585;49.706;18.216;2023-04-19T05:56:49;8.80;93.58
74224;SHT31;62585;49.706;18.216;2023-04-19T05:59:15;8.87;93.94
74224;SHT31;62585;49.706;18.216;2023-04-19T06:01:43;8.85;93.73
74224;SHT31;62585;49.706;18.216;2023-04-19T06:04:10;8.91;94.18
74224;SHT31;62585;49.706;18.216;2023-04-19T06:06:35;8.95;93.78
74224;SHT31;62585;49.706;18.216;2023-04-19T06:09:02;8.95;93.80
74224;SHT31;62585;49.706;18.216;2023-04-19T06:11:29;8.88;94.27
74224;SHT31;62585;49.706;18.216;2023-04-19T06:13:55;8.99;93.53
74224;SHT31;62585;49.706;18.216;2023-04-19T06:16:20;9.02;93.94
74224;SHT31;62585;49.706;18.216;2023-04-19T06:18:46;9.14;94.10
74224;SHT31;62585;49.706;18.216;2023-04-19T06:21:12;9.14;94.25
74224;SHT31;62585;49.706;18.216;2023-04-19T06:23:38;9.15;93.63
74224;SHT31;62585;49.706;18.216;2023-04-19T06:26:03;9.14;94.03
74224;SHT31;62585;49.706;18.216;2023-04-19T06:28:29;9.16;93.80
74224;SHT31;62585;49.706;18.216;2023-04-19T06:30:55;9.14;93.73
74224;SHT31;62585;49.706;18.216;2023-04-19T06:33:21;9.11;94.57
74224;SHT31;62585;49.706;18.216;2023-04-19T06:35:46;9.08;94.40
74224;SHT31;62585;49.706;18.216;2023-04-19T06:38:12;9.16;93.66
74224;SHT31;62585;49.706;18.216;2023-04-19T06:40:38;9.14;93.75
74224;SHT31;62585;49.706;18.216;2023-04-19T06:43:03;9.09;94.07
74224;SHT31;62585;49.706;18.216;2023-04-19T06:45:29;9.14;93.98
74224;SHT31;62585;49.706;18.216;2023-04-19T06:47:56;9.14;94.04
74224;SHT31;62585;49.706;18.216;2023-04-19T06:50:22;9.20;93.63
74224;SHT31;62585;49.706;18.216;2023-04-19T06:52:48;9.23;93.73
74224;SHT31;62585;49.706;18.216;2023-04-19T06:55:13;9.26;93.86
74224;SHT31;62585;49.706;18.216;2023-04-19T06:57:39;9.32;93.51
74224;SHT31;62585;49.706;18.216;2023-04-19T07:00:05;9.30;93.21
74224;SHT31;62585;49.706;18.216;2023-04-19T07:02:32;9.36;93.43
74224;SHT31;62585;49.706;18.216;2023-04-19T07:04:58;9.26;93.84
74224;SHT31;62585;49.706;18.216;2023-04-19T07:07:24;9.15;93.47
74224;SHT31;62585;49.706;18.216;2023-04-19T07:09:49;9.14;93.42
74224;SHT31;62585;49.706;18.216;2023-04-19T07:12:15;9.09;94.09
74224;SHT31;62585;49.706;18.216;2023-04-19T07:14:41;9.01;94.08
74224;SHT31;62585;49.706;18.216;2023-04-19T07:17:07;8.98;93.63
74224;SHT31;62585;49.706;18.216;2023-04-19T07:19:33;8.72;94.00
74224;SHT31;62585;49.706;18.216;2023-04-19T07:22:00;8.60;94.45
74224;SHT31;62585;49.706;18.216;2023-04-19T07:24:25;8.60;94.56
74224;SHT31;62585;49.706;18.216;2023-04-19T07:26:54;8.56;94.11
74224;SHT31;62585;49.706;18.216;2023-04-19T07:29:19;8.37;93.41
74224;SHT31;62585;49.706;18.216;2023-04-19T07:31:45;8.22;93.22
74224;SHT31;62585;49.706;18.216;2023-04-19T07:34:11;8.13;93.20
74224;SHT31;62585;49.706;18.216;2023-04-19T07:36:37;8.13;93.23
74224;SHT31;62585;49.706;18.216;2023-04-19T07:39:03;8.19;92.81
74224;SHT31;62585;49.706;18.216;2023-04-19T07:41:32;7.95;92.71
74224;SHT31;62585;49.706;18.216;2023-04-19T07:43:58;7.84;91.99
74224;SHT31;62585;49.706;18.216;2023-04-19T07:46:24;7.77;92.45
74224;SHT31;62585;49.706;18.216;2023-04-19T07:48:50;7.71;92.32
74224;SHT31;62585;49.706;18.216;2023-04-19T07:51:16;7.58;92.53
74224;SHT31;62585;49.706;18.216;2023-04-19T07:53:42;7.50;93.35
74224;SHT31;62585;49.706;18.216;2023-04-19T07:56:09;7.40;93.67
74224;SHT31;62585;49.706;18.216;2023-04-19T07:58:36;7.36;93.62
74224;SHT31;62585;49.706;18.216;2023-04-19T08:01:02;7.37;92.83
74224;SHT31;62585;49.706;18.216;2023-04-19T08:03:29;7.40;93.40
74224;SHT31;62585;49.706;18.216;2023-04-19T08:05:56;7.33;93.04
74224;SHT31;62585;49.706;18.216;2023-04-19T08:08:22;7.27;92.81
74224;SHT31;62585;49.706;18.216;2023-04-19T08:10:49;7.27;92.85
74224;SHT31;62585;49.706;18.216;2023-04-19T08:13:19;7.28;93.40
74224;SHT31;62585;49.706;18.216;2023-04-19T08:15:44;7.37;92.38
74224;SHT31;62585;49.706;18.216;2023-04-19T08:18:10;7.38;92.40
74224;SHT31;62585;49.706;18.216;2023-04-19T08:20:36;7.38;92.56
74224;SHT31;62585;49.706;18.216;2023-04-19T08:23:02;7.30;92.77
74224;SHT31;62585;49.706;18.216;2023-04-19T08:25:28;7.24;92.57
74224;SHT31;62585;49.706;18.216;2023-04-19T08:27:54;7.17;92.67
74224;SHT31;62585;49.706;18.216;2023-04-19T08:30:20;6.96;92.65
74224;SHT31;62585;49.706;18.216;2023-04-19T08:32:45;6.95;93.21
74224;SHT31;62585;49.706;18.216;2023-04-19T08:35:12;6.99;93.63
74224;SHT31;62585;49.706;18.216;2023-04-19T08:37:38;6.88;92.73
74224;SHT31;62585;49.706;18.216;2023-04-19T08:40:04;6.86;92.58
74224;SHT31;62585;49.706;18.216;2023-04-19T08:42:30;6.86;92.83
74224;SHT31;62585;49.706;18.216;2023-04-19T08:45:01;6.95;93.17
74224;SHT31;62585;49.706;18.216;2023-04-19T08:47:31;6.85;92.97
74224;SHT31;62585;49.706;18.216;2023-04-19T08:50:06;6.89;93.63
74224;SHT31;62585;49.706;18.216;2023-04-19T08:52:33;6.96;92.46
74224;SHT31;62585;49.706;18.216;2023-04-19T08:55:04;6.86;92.60
74224;SHT31;62585;49.706;18.216;2023-04-19T08:57:31;6.72;92.50
74224;SHT31;62585;49.706;18.216;2023-04-19T08:59:58;6.74;92.89
74224;SHT31;62585;49.706;18.216;2023-04-19T09:02:24;6.75;92.44
74224;SHT31;62585;49.706;18.216;2023-04-19T09:04:50;6.75;93.06
74224;SHT31;62585;49.706;18.216;2023-04-19T09:07:26;6.81;92.65
74224;SHT31;62585;49.706;18.216;2023-04-19T09:10:09;6.78;91.74
74224;SHT31;62585;49.706;18.216;2023-04-19T09:12:36;6.69;92.49
74224;SHT31;62585;49.706;18.216;2023-04-19T09:15:03;6.75;92.52
74224;SHT31;62585;49.706;18.216;2023-04-19T09:17:31;6.78;92.61
74224;SHT31;62585;49.706;18.216;2023-04-19T09:19:57;6.79;91.43
74224;SHT31;62585;49.706;18.216;2023-04-19T09:22:23;6.84;92.05
74224;SHT31;62585;49.706;18.216;2023-04-19T09:24:50;6.91;92.55
74224;SHT31;62585;49.706;18.216;2023-04-19T09:27:29;6.93;91.73
74224;SHT31;62585;49.706;18.216;2023-04-19T09:29:56;6.79;91.77
74224;SHT31;62585;49.706;18.216;2023-04-19T09:32:22;6.71;92.43
74224;SHT31;62585;49.706;18.216;2023-04-19T09:34:53;6.77;92.09
74224;SHT31;62585;49.706;18.216;2023-04-19T09:37:19;6.78;92.53
74224;SHT31;62585;49.706;18.216;2023-04-19T09:39:46;6.72;91.71
74224;SHT31;62585;49.706;18.216;2023-04-19T09:42:11;6.79;91.90
74224;SHT31;62585;49.706;18.216;2023-04-19T09:44:37;6.81;90.76
74224;SHT31;62585;49.706;18.216;2023-04-19T10:11:53;6.78;91.17
74224;SHT31;62585;49.706;18.216;2023-04-19T10:14:22;6.82;90.82
74224;SHT31;62585;49.706;18.216;2023-04-19T10:16:52;6.74;91.51
74224;SHT31;62585;49.706;18.216;2023-04-19T10:19:21;6.75;91.36
74224;SHT31;62585;49.706;18.216;2023-04-19T10:21:48;6.78;91.35
74224;SHT31;62585;49.706;18.216;2023-04-19T10:24:15;6.75;91.22
74224;SHT31;62585;49.706;18.216;2023-04-19T10:32:27;6.72;90.64
74224;SHT31;62585;49.706;18.216;2023-04-19T10:34:53;6.74;91.07
74224;SHT31;62585;49.706;18.216;2023-04-19T10:37:24;6.75;91.09
74224;SHT31;62585;49.706;18.216;2023-04-19T10:39:51;6.55;90.34
74224;SHT31;62585;49.706;18.216;2023-04-19T10:42:17;6.65;91.24
74224;SHT31;62585;49.706;18.216;2023-04-19T10:48:02;6.55;91.62
74224;SHT31;62585;49.706;18.216;2023-04-19T10:50:28;6.65;91.50
74224;SHT31;62585;49.706;18.216;2023-04-19T10:52:54;6.63;91.09
74224;SHT31;62585;49.706;18.216;2023-04-19T10:55:20;6.45;90.20
74224;SHT31;62585;49.706;18.216;2023-04-19T10:58:05;6.57;90.58
74224;SHT31;62585;49.706;18.216;2023-04-19T11:00:32;6.58;90.84
74224;SHT31;62585;49.706;18.216;2023-04-19T11:02:59;6.51;90.55
74224;SHT31;62585;49.706;18.216;2023-04-19T11:05:25;6.52;90.80
74224;SHT31;62585;49.706;18.216;2023-04-19T11:07:51;6.64;90.21
74224;SHT31;62585;49.706;18.216;2023-04-19T11:10:29;6.64;90.87
74224;SHT31;62585;49.706;18.216;2023-04-19T11:12:55;6.74;90.84
74224;SHT31;62585;49.706;18.216;2023-04-19T11:15:22;6.81;91.24
74224;SHT31;62585;49.706;18.216;2023-04-19T11:17:49;6.78;90.89
74224;SHT31;62585;49.706;18.216;2023-04-19T11:20:22;6.81;91.31
74224;SHT31;62585;49.706;18.216;2023-04-19T11:22:48;6.72;92.18
74224;SHT31;62585;49.706;18.216;2023-04-19T11:25:16;6.77;92.43
74224;SHT31;62585;49.706;18.216;2023-04-19T11:27:44;6.69;92.06
74224;SHT31;62585;49.706;18.216;2023-04-19T11:30:20;6.68;92.38
74224;SHT31;62585;49.706;18.216;2023-04-19T11:32:51;6.59;92.82
74224;SHT31;62585;49.706;18.216;2023-04-19T11:35:22;6.61;92.72
74224;SHT31;62585;49.706;18.216;2023-04-19T11:37:49;6.59;93.00
74224;SHT31;62585;49.706;18.216;2023-04-19T11:40:17;6.59;93.03
74224;SHT31;62585;49.706;18.216;2023-04-19T11:42:43;6.61;91.69
74224;SHT31;62585;49.706;18.216;2023-04-19T11:45:10;6.61;92.64
74224;SHT31;62585;49.706;18.216;2023-04-19T11:47:48;6.54;92.59
74224;SHT31;62585;49.706;18.216;2023-04-19T11:50:34;6.47;91.95
74224;SHT31;62585;49.706;18.216;2023-04-19T11:53:13;6.44;92.55
74224;SHT31;62585;49.706;18.216;2023-04-19T11:55:44;6.40;92.59
74224;SHT31;62585;49.706;18.216;2023-04-19T12:00:47;6.33;92.66
74224;SHT31;62585;49.706;18.216;2023-04-19T12:03:13;6.34;92.38
74224;SHT31;62585;49.706;18.216;2023-04-19T12:05:51;6.26;91.95
74224;SHT31;62585;49.706;18.216;2023-04-19T12:08:16;6.27;92.10
74224;SHT31;62585;49.706;18.216;2023-04-19T12:10:55;6.26;92.74
74224;SHT31;62585;49.706;18.216;2023-04-19T12:13:25;6.37;93.35
74224;SHT31;62585;49.706;18.216;2023-04-19T12:15:51;6.31;92.71
74224;SHT31;62585;49.706;18.216;2023-04-19T12:18:17;6.30;91.97
74224;SHT31;62585;49.706;18.216;2023-04-19T12:20:45;6.31;92.78
74224;SHT31;62585;49.706;18.216;2023-04-19T12:23:15;6.40;92.73
74224;SHT31;62585;49.706;18.216;2023-04-19T12:25:44;6.33;91.03
74224;SHT31;62585;49.706;18.216;2023-04-19T12:28:11;6.37;91.96
74224;SHT31;62585;49.706;18.216;2023-04-19T12:30:38;6.17;91.58
74224;SHT31;62585;49.706;18.216;2023-04-19T12:33:05;6.24;91.96
74224;SHT31;62585;49.706;18.216;2023-04-19T12:35:31;6.09;92.41
74224;SHT31;62585;49.706;18.216;2023-04-19T12:37:57;6.10;92.29
74224;SHT31;62585;49.706;18.216;2023-04-19T12:40:25;6.10;92.29
74224;SHT31;62585;49.706;18.216;2023-04-19T12:42:52;6.23;92.43
74224;SHT31;62585;49.706;18.216;2023-04-19T12:45:18;6.33;92.06
74224;SHT31;62585;49.706;18.216;2023-04-19T12:47:45;6.31;92.33
74224;SHT31;62585;49.706;18.216;2023-04-19T12:50:12;6.19;91.41
74224;SHT31;62585;49.706;18.216;2023-04-19T12:52:38;6.21;92.00
74224;SHT31;62585;49.706;18.216;2023-04-19T12:55:05;6.31;92.39
74224;SHT31;62585;49.706;18.216;2023-04-19T12:57:31;6.21;92.28
74224;SHT31;62585;49.706;18.216;2023-04-19T12:59:57;6.26;92.06
74224;SHT31;62585;49.706;18.216;2023-04-19T13:02:23;6.34;92.40
74224;SHT31;62585;49.706;18.216;2023-04-19T13:04:48;6.24;92.12
74224;SHT31;62585;49.706;18.216;2023-04-19T13:07:14;6.44;91.73
74224;SHT31;62585;49.706;18.216;2023-04-19T13:09:40;6.44;91.87
74224;SHT31;62585;49.706;18.216;2023-04-19T13:12:06;6.34;91.31
74224;SHT31;62585;49.706;18.216;2023-04-19T13:14:32;6.27;91.79
74224;SHT31;62585;49.706;18.216;2023-04-19T13:16:58;6.36;91.40
74224;SHT31;62585;49.706;18.216;2023-04-19T13:19:24;6.30;91.39
74224;SHT31;62585;49.706;18.216;2023-04-19T13:21:49;6.33;91.34
74224;SHT31;62585;49.706;18.216;2023-04-19T13:24:15;6.27;91.58
74224;SHT31;62585;49.706;18.216;2023-04-19T13:26:41;6.30;91.59
74224;SHT31;62585;49.706;18.216;2023-04-19T13:29:07;6.33;91.13
74224;SHT31;62585;49.706;18.216;2023-04-19T13:31:35;6.38;90.41
74224;SHT31;62585;49.706;18.216;2023-04-19T13:34:01;6.27;90.28
74224;SHT31;62585;49.706;18.216;2023-04-19T13:36:27;6.30;90.96
74224;SHT31;62585;49.706;18.216;2023-04-19T13:38:53;6.21;91.38
74224;SHT31;62585;49.706;18.216;2023-04-19T13:41:19;6.47;90.98
74224;SHT31;62585;49.706;18.216;2023-04-19T13:43:45;6.45;91.63
74224;SHT31;62585;49.706;18.216;2023-04-19T13:46:11;6.40;90.17
74224;SHT31;62585;49.706;18.216;2023-04-19T13:48:37;6.37;91.10
74224;SHT31;62585;49.706;18.216;2023-04-19T13:51:02;6.40;90.38
74224;SHT31;62585;49.706;18.216;2023-04-19T13:53:28;6.19;90.35
74224;SHT31;62585;49.706;18.216;2023-04-19T13:55:55;6.21;91.88
74224;SHT31;62585;49.706;18.216;2023-04-19T13:58:21;6.24;92.41
74224;SHT31;62585;49.706;18.216;2023-04-19T14:00:49;6.27;93.03
74224;SHT31;62585;49.706;18.216;2023-04-19T14:03:15;6.38;92.05
74224;SHT31;62585;49.706;18.216;2023-04-19T14:05:42;6.23;90.98
74224;SHT31;62585;49.706;18.216;2023-04-19T14:08:08;6.27;91.16
74224;SHT31;62585;49.706;18.216;2023-04-19T14:10:34;6.23;91.02
74224;SHT31;62585;49.706;18.216;2023-04-19T14:13:01;6.27;90.56
74224;SHT31;62585;49.706;18.216;2023-04-19T14:15:27;6.23;90.94
74224;SHT31;62585;49.706;18.216;2023-04-19T14:17:53;6.24;90.99
74224;SHT31;62585;49.706;18.216;2023-04-19T14:20:19;6.21;90.66
74224;SHT31;62585;49.706;18.216;2023-04-19T14:22:45;6.20;90.69
74224;SHT31;62585;49.706;18.216;2023-04-19T14:25:12;6.20;91.27
74224;SHT31;62585;49.706;18.216;2023-04-19T14:27:40;6.14;91.04
74224;SHT31;62585;49.706;18.216;2023-04-19T14:30:06;6.30;91.38
74224;SHT31;62585;49.706;18.216;2023-04-19T14:32:33;6.27;92.12
74224;SHT31;62585;49.706;18.216;2023-04-19T14:34:58;6.23;92.22
74224;SHT31;62585;49.706;18.216;2023-04-19T14:37:25;6.26;91.74
74224;SHT31;62585;49.706;18.216;2023-04-19T14:39:51;6.21;91.65
74224;SHT31;62585;49.706;18.216;2023-04-19T14:42:17;6.19;91.85
74224;SHT31;62585;49.706;18.216;2023-04-19T14:44:43;6.20;92.33
74224;SHT31;62585;49.706;18.216;2023-04-19T14:47:10;6.19;92.35
74224;SHT31;62585;49.706;18.216;2023-04-19T14:49:36;6.13;93.05
74224;SHT31;62585;49.706;18.216;2023-04-19T14:52:02;6.10;92.81
74224;SHT31;62585;49.706;18.216;2023-04-19T14:54:28;6.03;91.68
74224;SHT31;62585;49.706;18.216;2023-04-19T14:56:55;6.03;92.05
74224;SHT31;62585;49.706;18.216;2023-04-19T14:59:20;6.02;92.61
74224;SHT31;62585;49.706;18.216;2023-04-19T15:01:46;6.07;92.69
74224;SHT31;62585;49.706;18.216;2023-04-19T15:04:12;6.00;92.28
74224;SHT31;62585;49.706;18.216;2023-04-19T15:06:38;5.93;92.73
74224;SHT31;62585;49.706;18.216;2023-04-19T15:09:03;5.89;93.40
74224;SHT31;62585;49.706;18.216;2023-04-19T15:11:29;5.90;93.21
74224;SHT31;62585;49.706;18.216;2023-04-19T15:13:55;6.03;92.95
74224;SHT31;62585;49.706;18.216;2023-04-19T15:16:21;6.05;93.54
74224;SHT31;62585;49.706;18.216;2023-04-19T15:18:46;5.98;92.46
74224;SHT31;62585;49.706;18.216;2023-04-19T15:21:13;6.06;92.62
74224;SHT31;62585;49.706;18.216;2023-04-19T15:23:39;5.96;92.28
74224;SHT31;62585;49.706;18.216;2023-04-19T15:26:05;5.93;93.52
74224;SHT31;62585;49.706;18.216;2023-04-19T15:28:32;5.99;93.18
74224;SHT31;62585;49.706;18.216;2023-04-19T15:31:03;5.98;93.00
74224;SHT31;62585;49.706;18.216;2023-04-19T15:33:29;5.82;93.96
74224;SHT31;62585;49.706;18.216;2023-04-19T15:35:56;5.86;94.11
74224;SHT31;62585;49.706;18.216;2023-04-19T15:38:23;5.86;93.96
74224;SHT31;62585;49.706;18.216;2023-04-19T15:40:49;5.85;93.73
74224;SHT31;62585;49.706;18.216;2023-04-19T15:43:15;5.86;94.35
74224;SHT31;62585;49.706;18.216;2023-04-19T15:45:41;5.86;94.11
74224;SHT31;62585;49.706;18.216;2023-04-19T15:48:07;5.82;93.60
74224;SHT31;62585;49.706;18.216;2023-04-19T15:50:35;5.83;93.57
74224;SHT31;62585;49.706;18.216;2023-04-19T15:53:01;5.82;93.52
74224;SHT31;62585;49.706;18.216;2023-04-19T15:55:27;5.83;93.56
74224;SHT31;62585;49.706;18.216;2023-04-19T15:57:52;5.79;93.72
74224;SHT31;62585;49.706;18.216;2023-04-19T16:00:18;5.92;93.71